Time;durP1;ratioP1;P1;durP2;ratioP2;P2;SDS_P1;SDS_P2;PMS_P1;PMS_P2;Temp;Humidity;BMP_temperature;BMP_pressure;BME280_temperature;BME280_humidity;BME280_pressure;Samples;Min_cycle;Max_cycle;Signal;HPM_P1;HPM_P2
2022/12/25 00:02:15;;;;;;;47.55;42.35;;;;;;;;;;5100545;28;20199;-66
2022/12/25 00:04:42;;;;;;;47.40;42.22;;;;;;;;;;5100350;28;20204;-66
2022/12/25 00:07:12;;;;;;;45.90;41.15;;;;;;;;;;5100264;28;20265;-66
2022/12/25 00:09:39;;;;;;;45.50;40.70;;;;;;;;;;5099935;28;20208;-66
2022/12/25 00:12:07;;;;;;;43.83;38.80;;;;;;;;;;5100186;28;20290;-65
2022/12/25 00:14:35;;;;;;;43.42;38.70;;;;;;;;;;5100122;28;20204;-65
2022/12/25 00:17:03;;;;;;;43.22;38.50;;;;;;;;;;5100346;28;20261;-67
2022/12/25 00:19:30;;;;;;;42.10;37.50;;;;;;;;;;5099707;28;20326;-65
2022/12/25 00:21:58;;;;;;;39.40;35.10;;;;;;;;;;5100022;28;20214;-66
2022/12/25 00:24:28;;;;;;;40.25;35.92;;;;;;;;;;5099301;28;20202;-66
2022/12/25 00:26:55;;;;;;;38.03;33.97;;;;;;;;;;5099248;28;20269;-66
2022/12/25 00:29:23;;;;;;;36.47;32.58;;;;;;;;;;5098299;28;20277;-66
2022/12/25 00:31:51;;;;;;;35.60;31.77;;;;;;;;;;5099364;28;20608;-66
2022/12/25 00:34:19;;;;;;;34.67;30.98;;;;;;;;;;5099211;28;20356;-65
2022/12/25 00:36:46;;;;;;;34.75;31.23;;;;;;;;;;5099863;28;20615;-67
2022/12/25 00:39:14;;;;;;;33.80;30.10;;;;;;;;;;5099465;28;20239;-65
2022/12/25 00:44:28;;;;;;;32.00;28.60;;;;;;;;;;5099167;28;20520;-66
2022/12/25 00:46:56;;;;;;;30.80;27.55;;;;;;;;;;5099760;28;20206;-65
2022/12/25 00:49:24;;;;;;;31.08;27.73;;;;;;;;;;5099610;28;20568;-66
2022/12/25 00:51:52;;;;;;;30.42;27.15;;;;;;;;;;5098762;28;20306;-66
2022/12/25 00:54:20;;;;;;;30.63;27.48;;;;;;;;;;5099585;28;20239;-66
2022/12/25 00:56:49;;;;;;;28.35;25.35;;;;;;;;;;5098649;28;20253;-66
2022/12/25 00:59:17;;;;;;;27.83;24.88;;;;;;;;;;5097724;28;20333;-66
2022/12/25 01:01:45;;;;;;;26.80;23.95;;;;;;;;;;5098895;28;20493;-66
2022/12/25 01:04:13;;;;;;;26.80;24.10;;;;;;;;;;5099449;28;20246;-65
2022/12/25 01:06:41;;;;;;;26.23;23.55;;;;;;;;;;5099379;28;20642;-66
2022/12/25 01:12:10;;;;;;;24.42;21.83;;;;;;;;;;5017503;28;20194;-65
2022/12/25 01:14:38;;;;;;;24.48;21.92;;;;;;;;;;5017475;28;20483;-66
2022/12/25 01:17:05;;;;;;;23.73;21.33;;;;;;;;;;5054299;28;20265;-66
2022/12/25 01:19:33;;;;;;;23.05;20.60;;;;;;;;;;5098740;28;20234;-66
2022/12/25 01:22:01;;;;;;;22.25;19.85;;;;;;;;;;5098758;28;20204;-66
2022/12/25 01:24:28;;;;;;;21.92;19.65;;;;;;;;;;5098544;28;20210;-66
2022/12/25 01:26:56;;;;;;;20.52;18.38;;;;;;;;;;5098773;28;20212;-66
2022/12/25 01:29:25;;;;;;;20.92;18.83;;;;;;;;;;5097988;28;20200;-65
2022/12/25 01:31:53;;;;;;;19.98;17.98;;;;;;;;;;5098753;28;20204;-66
2022/12/25 01:34:21;;;;;;;19.90;17.88;;;;;;;;;;5097815;28;20594;-65
2022/12/25 01:36:48;;;;;;;20.35;18.20;;;;;;;;;;5098600;28;20265;-66
2022/12/25 01:39:16;;;;;;;18.45;16.55;;;;;;;;;;5096891;28;20224;-66
2022/12/25 01:41:44;;;;;;;17.80;16.00;;;;;;;;;;5097568;28;20203;-65
2022/12/25 01:44:26;;;;;;;17.92;16.13;;;;;;;;;;5097020;28;20235;-66
2022/12/25 01:46:55;;;;;;;17.48;15.73;;;;;;;;;;5097479;28;20481;-65
2022/12/25 01:49:25;;;;;;;17.13;15.32;;;;;;;;;;5097852;28;20261;-65
2022/12/25 01:51:54;;;;;;;15.57;13.98;;;;;;;;;;5098163;28;20214;-65
2022/12/25 01:54:24;;;;;;;16.27;14.57;;;;;;;;;;5097646;28;20551;-65
2022/12/25 01:56:53;;;;;;;15.75;14.15;;;;;;;;;;5097422;28;20265;-65
2022/12/25 01:59:23;;;;;;;16.15;14.45;;;;;;;;;;5098441;28;20561;-66
2022/12/25 02:01:51;;;;;;;14.60;13.07;;;;;;;;;;5098127;28;20214;-66
2022/12/25 02:04:37;;;;;;;14.85;13.35;;;;;;;;;;5098224;28;20230;-66
2022/12/25 02:07:05;;;;;;;13.98;12.57;;;;;;;;;;5098097;28;20204;-66
2022/12/25 02:09:33;;;;;;;14.35;12.93;;;;;;;;;;5097355;28;20567;-66
2022/12/25 02:12:01;;;;;;;13.57;12.23;;;;;;;;;;5098063;28;20207;-66
2022/12/25 02:14:31;;;;;;;13.27;11.98;;;;;;;;;;5097516;28;20577;-66
2022/12/25 02:17:03;;;;;;;13.10;11.80;;;;;;;;;;5097254;28;20205;-65
2022/12/25 02:19:43;;;;;;;11.95;10.75;;;;;;;;;;5097227;28;20321;-65
2022/12/25 02:22:16;;;;;;;12.65;11.38;;;;;;;;;;5097939;28;20203;-65
2022/12/25 02:24:56;;;;;;;11.15;10.05;;;;;;;;;;5097466;28;20237;-66
2022/12/25 02:27:30;;;;;;;12.07;10.88;;;;;;;;;;5097387;28;20203;-66
2022/12/25 02:30:03;;;;;;;11.02;9.93;;;;;;;;;;5097865;28;20261;-66
2022/12/25 02:32:33;;;;;;;10.35;9.25;;;;;;;;;;5097463;28;20203;-65
2022/12/25 02:35:02;;;;;;;10.55;9.52;;;;;;;;;;5097315;28;20202;-65
2022/12/25 02:37:32;;;;;;;10.80;9.70;;;;;;;;;;5096918;28;20461;-66
2022/12/25 02:40:00;;;;;;;10.10;9.10;;;;;;;;;;5097156;28;20224;-66
2022/12/25 03:07:31;;;;;;;7.93;7.10;;;;;;;;;;5116665;28;20190;-66
2022/12/25 03:12:50;;;;;;;7.50;6.80;;;;;;;;;;5117439;28;20639;-66
2022/12/25 03:18:06;;;;;;;7.50;6.70;;;;;;;;;;5116330;28;20189;-65
2022/12/25 03:32:02;;;;;;;6.50;5.90;;;;;;;;;;5123519;28;20293;-65
2022/12/25 04:36:11;;;;;;;4.50;4.10;;;;;;;;;;5099251;28;20191;-65
2022/12/25 04:38:40;;;;;;;4.63;4.22;;;;;;;;;;5100239;28;20541;-66
2022/12/25 04:41:09;;;;;;;4.20;3.80;;;;;;;;;;5099781;28;20205;-66
2022/12/25 04:43:37;;;;;;;4.00;3.70;;;;;;;;;;5099855;28;20527;-66
2022/12/25 04:46:05;;;;;;;3.70;3.40;;;;;;;;;;5099505;28;20290;-66
2022/12/25 04:48:34;;;;;;;3.45;3.15;;;;;;;;;;5099324;28;20203;-66
2022/12/25 04:51:10;;;;;;;3.88;3.58;;;;;;;;;;5099796;28;20269;-66
2022/12/25 04:53:38;;;;;;;3.72;3.28;;;;;;;;;;5099476;28;20211;-65
2022/12/25 04:56:06;;;;;;;3.47;3.17;;;;;;;;;;5099107;28;20590;-65
2022/12/25 04:58:36;;;;;;;3.28;2.97;;;;;;;;;;5099465;28;20203;-65
2022/12/25 05:01:04;;;;;;;3.53;3.22;;;;;;;;;;5099361;28;20228;-65
2022/12/25 05:03:31;;;;;;;3.58;3.28;;;;;;;;;;5099489;28;20562;-66
2022/12/25 05:05:59;;;;;;;3.00;2.80;;;;;;;;;;5099333;28;20349;-66
2022/12/25 05:08:27;;;;;;;3.20;2.90;;;;;;;;;;5099743;28;20307;-66
2022/12/25 05:10:54;;;;;;;2.88;2.67;;;;;;;;;;5099460;28;20200;-66
2022/12/25 05:13:22;;;;;;;3.08;2.78;;;;;;;;;;5099041;28;20218;-66
2022/12/25 05:15:50;;;;;;;2.80;2.60;;;;;;;;;;5099919;28;20231;-66
2022/12/25 05:18:18;;;;;;;3.13;2.90;;;;;;;;;;5099110;28;20286;-66
2022/12/25 05:20:52;;;;;;;3.30;3.00;;;;;;;;;;5098968;28;20322;-66
2022/12/25 05:23:19;;;;;;;3.15;2.85;;;;;;;;;;5098299;28;20306;-65
2022/12/25 05:25:47;;;;;;;3.13;2.70;;;;;;;;;;5099155;28;20214;-65
2022/12/25 05:28:14;;;;;;;2.80;2.60;;;;;;;;;;5099055;28;20204;-65
2022/12/25 05:30:42;;;;;;;2.75;2.55;;;;;;;;;;5099296;28;20210;-65
2022/12/25 05:33:10;;;;;;;2.97;2.67;;;;;;;;;;5099002;28;20303;-65
2022/12/25 05:35:38;;;;;;;3.03;2.72;;;;;;;;;;5098997;28;20208;-65
2022/12/25 05:38:05;;;;;;;2.75;2.55;;;;;;;;;;5098536;28;20295;-65
2022/12/25 05:40:33;;;;;;;2.85;2.60;;;;;;;;;;5098217;28;20243;-65
2022/12/25 05:43:00;;;;;;;2.95;2.70;;;;;;;;;;5098627;28;20239;-66
2022/12/25 05:45:28;;;;;;;3.17;2.85;;;;;;;;;;5097965;28;20239;-65
2022/12/25 05:47:56;;;;;;;2.80;2.60;;;;;;;;;;5098897;28;20239;-66
2022/12/25 05:50:24;;;;;;;2.60;2.40;;;;;;;;;;5098538;28;20199;-66
2022/12/25 05:52:52;;;;;;;2.50;2.30;;;;;;;;;;5098428;28;20333;-66
2022/12/25 05:55:19;;;;;;;2.35;2.15;;;;;;;;;;5097618;28;20230;-66
2022/12/25 05:57:49;;;;;;;2.67;2.47;;;;;;;;;;5097961;28;20203;-66
2022/12/25 06:00:17;;;;;;;2.80;2.60;;;;;;;;;;5098407;28;20227;-65
2022/12/25 06:02:45;;;;;;;2.60;2.40;;;;;;;;;;5098449;28;20294;-66
2022/12/25 06:05:12;;;;;;;2.60;2.40;;;;;;;;;;5098441;28;20272;-66
2022/12/25 06:07:41;;;;;;;2.33;2.13;;;;;;;;;;5098458;28;20213;-65
2022/12/25 06:10:09;;;;;;;2.40;2.20;;;;;;;;;;5098499;28;20200;-66
2022/12/25 06:12:36;;;;;;;2.40;2.20;;;;;;;;;;5097927;28;20203;-65
2022/12/25 06:15:04;;;;;;;2.30;2.10;;;;;;;;;;5098045;28;20296;-65
2022/12/25 06:17:31;;;;;;;2.20;2.00;;;;;;;;;;5097275;28;20606;-65
2022/12/25 06:19:59;;;;;;;2.30;2.10;;;;;;;;;;5097977;28;20322;-66
2022/12/25 06:22:29;;;;;;;2.40;2.20;;;;;;;;;;5097994;28;20213;-66
2022/12/25 06:24:58;;;;;;;1.98;1.77;;;;;;;;;;5097734;28;20218;-66
2022/12/25 06:27:27;;;;;;;2.20;2.08;;;;;;;;;;5097749;28;20214;-66
2022/12/25 06:29:54;;;;;;;2.30;2.10;;;;;;;;;;5097633;28;20196;-66
2022/12/25 06:32:22;;;;;;;2.30;2.10;;;;;;;;;;5097769;28;20306;-66
2022/12/25 06:34:49;;;;;;;2.28;2.08;;;;;;;;;;5097055;28;20210;-65
2022/12/25 06:37:16;;;;;;;2.08;1.88;;;;;;;;;;5097678;28;20295;-66
2022/12/25 06:39:44;;;;;;;2.05;1.85;;;;;;;;;;5097465;28;20234;-65
2022/12/25 06:42:13;;;;;;;2.20;2.10;;;;;;;;;;5097326;28;20210;-65
2022/12/25 06:44:40;;;;;;;2.00;1.80;;;;;;;;;;5097609;28;20270;-65
2022/12/25 06:47:08;;;;;;;2.33;2.13;;;;;;;;;;5097076;28;20286;-66
2022/12/25 06:49:35;;;;;;;2.08;1.90;;;;;;;;;;5097355;28;20243;-66
2022/12/25 06:52:03;;;;;;;1.83;1.70;;;;;;;;;;5097197;28;20203;-66
2022/12/25 06:54:30;;;;;;;1.80;1.70;;;;;;;;;;5097349;28;20298;-66
2022/12/25 06:56:58;;;;;;;2.03;1.83;;;;;;;;;;5096368;28;20539;-66
2022/12/25 06:59:26;;;;;;;2.17;1.98;;;;;;;;;;5097414;28;20253;-66
2022/12/25 07:01:55;;;;;;;2.17;1.98;;;;;;;;;;5096508;28;20217;-66
2022/12/25 07:04:24;;;;;;;1.98;1.80;;;;;;;;;;5097152;28;20369;-66
2022/12/25 07:06:52;;;;;;;2.13;1.95;;;;;;;;;;5097175;28;20290;-66
2022/12/25 07:09:19;;;;;;;2.17;1.98;;;;;;;;;;5097146;28;20306;-66
2022/12/25 07:11:47;;;;;;;2.08;1.98;;;;;;;;;;5097191;28;20303;-65
2022/12/25 07:14:18;;;;;;;1.67;1.58;;;;;;;;;;5097091;28;20239;-65
2022/12/25 07:16:47;;;;;;;1.80;1.70;;;;;;;;;;5097196;28;20535;-66
2022/12/25 07:19:14;;;;;;;1.88;1.77;;;;;;;;;;5097184;28;20245;-66
2022/12/25 07:21:41;;;;;;;1.77;1.67;;;;;;;;;;5096853;28;20623;-66
2022/12/25 07:24:09;;;;;;;1.70;1.60;;;;;;;;;;5096705;28;20608;-66
2022/12/25 07:26:37;;;;;;;1.70;1.60;;;;;;;;;;5097044;28;20204;-66
2022/12/25 07:29:04;;;;;;;2.03;1.60;;;;;;;;;;5097311;28;20535;-65
2022/12/25 07:31:31;;;;;;;1.60;1.50;;;;;;;;;;5096994;28;20291;-65
2022/12/25 07:34:00;;;;;;;1.70;1.60;;;;;;;;;;5097024;28;20199;-65
2022/12/25 07:36:29;;;;;;;1.70;1.60;;;;;;;;;;5096475;28;20203;-65
2022/12/25 07:38:56;;;;;;;1.65;1.55;;;;;;;;;;5096883;28;20256;-65
2022/12/25 07:41:24;;;;;;;1.73;1.63;;;;;;;;;;5096849;28;20318;-66
2022/12/25 07:43:51;;;;;;;1.88;1.70;;;;;;;;;;5096442;28;20267;-65
2022/12/25 07:46:19;;;;;;;1.60;1.50;;;;;;;;;;5095840;28;20203;-65
2022/12/25 07:48:47;;;;;;;1.55;1.45;;;;;;;;;;5096609;28;20212;-66
2022/12/25 07:51:16;;;;;;;1.60;1.50;;;;;;;;;;5096848;28;20199;-66
2022/12/25 07:53:44;;;;;;;1.77;1.67;;;;;;;;;;5096333;28;20214;-65
2022/12/25 07:56:12;;;;;;;1.83;1.73;;;;;;;;;;5096471;28;20303;-65
2022/12/25 07:58:40;;;;;;;1.63;1.52;;;;;;;;;;5097000;28;20509;-66
2022/12/25 08:01:08;;;;;;;1.45;1.35;;;;;;;;;;5096051;28;20224;-65
2022/12/25 08:03:36;;;;;;;1.70;1.60;;;;;;;;;;5096538;28;20203;-65
2022/12/25 08:06:03;;;;;;;1.40;1.30;;;;;;;;;;5095604;28;20287;-65
2022/12/25 08:08:32;;;;;;;1.52;1.42;;;;;;;;;;5097908;28;20214;-65
2022/12/25 08:11:01;;;;;;;1.50;1.40;;;;;;;;;;5100769;28;20278;-65
2022/12/25 08:13:31;;;;;;;1.73;1.63;;;;;;;;;;5100207;28;20302;-65
2022/12/25 08:15:59;;;;;;;2.10;1.50;;;;;;;;;;5099957;28;20618;-65
2022/12/25 08:18:26;;;;;;;1.30;1.20;;;;;;;;;;5099901;28;20667;-65
2022/12/25 08:20:54;;;;;;;1.40;1.30;;;;;;;;;;5100319;28;20323;-66
2022/12/25 08:23:21;;;;;;;1.60;1.50;;;;;;;;;;5100110;28;20268;-66
2022/12/25 08:25:50;;;;;;;1.73;1.60;;;;;;;;;;5099257;28;20295;-65
2022/12/25 08:28:17;;;;;;;1.30;1.20;;;;;;;;;;5099764;28;20422;-66
2022/12/25 08:30:45;;;;;;;1.63;1.52;;;;;;;;;;5099461;28;20199;-65
2022/12/25 08:33:12;;;;;;;1.33;1.23;;;;;;;;;;5098919;28;20209;-65
2022/12/25 08:35:39;;;;;;;2.05;1.40;;;;;;;;;;5099186;28;20314;-66
2022/12/25 08:38:07;;;;;;;1.70;1.60;;;;;;;;;;5099348;28;20310;-65
2022/12/25 08:40:34;;;;;;;1.83;1.60;;;;;;;;;;5099200;28;20636;-65
2022/12/25 08:43:03;;;;;;;1.52;1.42;;;;;;;;;;5098805;28;20263;-66
2022/12/25 08:45:31;;;;;;;1.33;1.23;;;;;;;;;;5098951;28;20592;-66
2022/12/25 08:47:58;;;;;;;2.30;1.48;;;;;;;;;;5098528;28;20298;-66
2022/12/25 08:50:26;;;;;;;1.50;1.40;;;;;;;;;;5099159;28;20246;-66
2022/12/25 08:52:53;;;;;;;1.80;1.48;;;;;;;;;;5099388;28;20225;-65
2022/12/25 08:55:20;;;;;;;2.65;1.50;;;;;;;;;;5098582;28;20294;-65
2022/12/25 08:57:48;;;;;;;1.40;1.30;;;;;;;;;;5099372;28;20476;-65
2022/12/25 09:00:18;;;;;;;1.52;1.42;;;;;;;;;;5099253;28;20229;-65
2022/12/25 09:02:45;;;;;;;29.92;27.92;;;;;;;;;;5098606;28;20210;-65
2022/12/25 09:05:12;;;;;;;33.40;31.30;;;;;;;;;;5099123;28;20214;-66
2022/12/25 09:07:40;;;;;;;26.05;24.45;;;;;;;;;;5098548;28;20298;-66
2022/12/25 09:10:08;;;;;;;22.63;21.23;;;;;;;;;;5099367;28;20534;-66
2022/12/25 09:12:36;;;;;;;23.52;22.02;;;;;;;;;;5098466;28;20270;-66
2022/12/25 09:15:03;;;;;;;21.85;20.55;;;;;;;;;;5098138;28;20206;-66
2022/12/25 09:17:32;;;;;;;20.85;19.50;;;;;;;;;;5097989;28;20265;-65
2022/12/25 09:20:00;;;;;;;19.60;18.40;;;;;;;;;;5098057;28;20209;-65
2022/12/25 09:22:28;;;;;;;18.98;17.88;;;;;;;;;;5098464;28;20310;-65
2022/12/25 09:24:55;;;;;;;18.65;17.40;;;;;;;;;;5098895;28;20204;-66
2022/12/25 09:27:23;;;;;;;17.83;16.73;;;;;;;;;;5098349;28;20302;-69
2022/12/25 09:29:50;;;;;;;17.50;16.48;;;;;;;;;;5098037;28;20204;-66
2022/12/25 09:32:18;;;;;;;17.42;15.98;;;;;;;;;;5098005;28;20200;-66
2022/12/25 09:34:47;;;;;;;16.15;15.15;;;;;;;;;;5098156;28;20204;-66
2022/12/25 09:37:14;;;;;;;16.13;14.95;;;;;;;;;;5098451;28;20234;-66
2022/12/25 09:39:42;;;;;;;15.40;14.50;;;;;;;;;;5098266;28;20253;-66
2022/12/25 09:42:11;;;;;;;15.07;14.00;;;;;;;;;;5097888;28;20227;-66
2022/12/25 09:44:41;;;;;;;13.90;13.00;;;;;;;;;;5097581;28;20330;-66
2022/12/25 09:47:11;;;;;;;14.35;13.35;;;;;;;;;;5098162;28;20488;-66
2022/12/25 09:49:40;;;;;;;13.77;12.77;;;;;;;;;;5097663;28;20508;-66
2022/12/25 09:52:13;;;;;;;13.32;12.23;;;;;;;;;;5097042;28;20294;-66
2022/12/25 09:54:45;;;;;;;13.27;12.48;;;;;;;;;;5096424;28;20214;-65
2022/12/25 09:57:14;;;;;;;12.15;11.30;;;;;;;;;;5095373;28;20206;-66
2022/12/25 09:59:43;;;;;;;12.73;11.82;;;;;;;;;;5097196;28;20214;-66
2022/12/25 10:02:40;;;;;;;11.50;10.70;;;;;;;;;;5096300;28;20246;-66
2022/12/25 10:05:13;;;;;;;11.30;10.55;;;;;;;;;;5013902;28;20342;-66
2022/12/25 10:07:44;;;;;;;11.18;10.48;;;;;;;;;;5081146;28;20294;-66
2022/12/25 10:10:21;;;;;;;10.75;9.95;;;;;;;;;;5096859;28;20286;-66
2022/12/25 10:12:55;;;;;;;9.80;9.10;;;;;;;;;;5096326;28;20355;-66
2022/12/25 10:15:26;;;;;;;10.23;9.63;;;;;;;;;;5096742;28;20208;-66
2022/12/25 10:18:01;;;;;;;10.45;9.60;;;;;;;;;;5096108;28;20202;-66
2022/12/25 10:20:34;;;;;;;9.52;8.73;;;;;;;;;;5096867;28;20282;-65
2022/12/25 10:23:06;;;;;;;8.60;7.93;;;;;;;;;;5097213;28;20302;-66
2022/12/25 10:25:33;;;;;;;9.45;8.75;;;;;;;;;;5097735;28;20214;-67
2022/12/25 10:28:02;;;;;;;8.55;7.95;;;;;;;;;;5097245;28;20250;-65
2022/12/25 10:30:31;;;;;;;8.35;7.80;;;;;;;;;;5097011;28;20225;-65
2022/12/25 10:32:59;;;;;;;8.35;7.85;;;;;;;;;;5097392;28;20203;-65
2022/12/25 10:35:28;;;;;;;8.68;8.07;;;;;;;;;;5097900;28;20208;-65
2022/12/25 10:37:58;;;;;;;7.80;7.20;;;;;;;;;;5097198;28;20208;-66
2022/12/25 10:40:30;;;;;;;7.70;7.20;;;;;;;;;;5097552;28;20203;-66
2022/12/25 10:43:01;;;;;;;7.43;6.72;;;;;;;;;;5096579;28;20247;-66
2022/12/25 10:45:28;;;;;;;7.40;6.85;;;;;;;;;;5096828;28;20204;-66
2022/12/25 10:48:03;;;;;;;8.13;7.28;;;;;;;;;;5097322;28;20298;-66
2022/12/25 10:50:32;;;;;;;6.68;6.28;;;;;;;;;;5097129;28;20268;-66
2022/12/25 10:53:03;;;;;;;6.93;6.35;;;;;;;;;;5096731;28;20204;-66
2022/12/25 10:55:32;;;;;;;6.38;5.90;;;;;;;;;;5096626;28;20294;-66
2022/12/25 10:58:00;;;;;;;6.43;5.93;;;;;;;;;;5095337;28;20607;-66
2022/12/25 11:00:29;;;;;;;5.43;5.03;;;;;;;;;;5096101;28;20284;-66
2022/12/25 11:02:57;;;;;;;5.50;5.10;;;;;;;;;;5095966;28;20234;-66
2022/12/25 11:05:28;;;;;;;6.03;5.53;;;;;;;;;;5095596;28;20214;-66
2022/12/25 11:07:55;;;;;;;5.85;5.35;;;;;;;;;;5096098;28;20223;-65
2022/12/25 11:10:24;;;;;;;5.40;5.00;;;;;;;;;;5095342;28;20468;-65
2022/12/25 11:12:54;;;;;;;6.10;5.40;;;;;;;;;;5095095;28;20222;-66
2022/12/25 11:15:41;;;;;;;5.30;4.90;;;;;;;;;;5096278;28;20570;-66
2022/12/25 11:18:18;;;;;;;5.13;4.60;;;;;;;;;;5096237;28;20290;-66
2022/12/25 11:20:49;;;;;;;4.95;4.57;;;;;;;;;;5095605;28;20203;-66
2022/12/25 11:23:19;;;;;;;4.75;4.45;;;;;;;;;;5094337;28;20203;-66
2022/12/25 11:25:55;;;;;;;4.60;4.30;;;;;;;;;;5094746;28;20225;-65
2022/12/25 11:28:24;;;;;;;4.32;4.03;;;;;;;;;;5095971;28;20289;-65
2022/12/25 11:30:55;;;;;;;5.50;4.10;;;;;;;;;;5094499;28;20203;-65
2022/12/25 11:33:26;;;;;;;4.38;3.80;;;;;;;;;;5094635;28;20203;-65
2022/12/25 11:35:55;;;;;;;4.72;4.15;;;;;;;;;;5095645;28;20229;-65
2022/12/25 11:38:23;;;;;;;4.35;4.05;;;;;;;;;;5094935;28;20499;-66
2022/12/25 11:40:52;;;;;;;4.28;3.85;;;;;;;;;;5095615;28;20265;-66
2022/12/25 11:43:23;;;;;;;4.18;3.78;;;;;;;;;;5098676;28;20227;-66
2022/12/25 11:45:53;;;;;;;4.15;3.70;;;;;;;;;;5100127;28;20333;-66
2022/12/25 11:48:23;;;;;;;4.00;3.70;;;;;;;;;;5100177;28;20203;-65
2022/12/25 11:50:53;;;;;;;4.28;3.53;;;;;;;;;;5099172;28;20306;-66
2022/12/25 11:53:23;;;;;;;3.80;3.60;;;;;;;;;;5099094;28;20203;-65
2022/12/25 11:55:55;;;;;;;3.63;3.33;;;;;;;;;;5098894;28;20213;-65
2022/12/25 11:58:26;;;;;;;3.90;3.50;;;;;;;;;;5099359;28;20216;-65
2022/12/25 12:00:59;;;;;;;3.33;3.13;;;;;;;;;;5099031;28;20203;-65
2022/12/25 12:03:28;;;;;;;3.95;3.30;;;;;;;;;;5098442;28;20199;-66
2022/12/25 12:05:57;;;;;;;3.70;3.40;;;;;;;;;;5098778;28;20284;-65
2022/12/25 12:08:25;;;;;;;4.07;2.88;;;;;;;;;;5098860;28;20249;-66
2022/12/25 12:11:14;;;;;;;3.47;3.17;;;;;;;;;;5099118;28;20204;-65
2022/12/25 12:13:46;;;;;;;2.97;2.78;;;;;;;;;;5098080;28;20579;-65
2022/12/25 12:16:15;;;;;;;3.22;2.95;;;;;;;;;;5098644;28;20246;-66
2022/12/25 12:18:43;;;;;;;3.15;2.67;;;;;;;;;;5098601;28;20632;-66
2022/12/25 12:21:20;;;;;;;2.92;2.72;;;;;;;;;;5098063;28;20269;-66
2022/12/25 12:23:49;;;;;;;2.90;2.70;;;;;;;;;;5098696;28;20264;-66
2022/12/25 12:26:21;;;;;;;2.88;2.55;;;;;;;;;;5098273;28;20215;-66
2022/12/25 12:28:49;;;;;;;3.20;2.47;;;;;;;;;;5098496;28;20306;-66
2022/12/25 12:31:18;;;;;;;2.70;2.50;;;;;;;;;;5098498;28;20208;-65
2022/12/25 12:33:50;;;;;;;2.78;2.58;;;;;;;;;;5097769;28;20204;-66
2022/12/25 12:36:21;;;;;;;3.25;2.38;;;;;;;;;;5098208;28;20211;-66
2022/12/25 12:38:49;;;;;;;2.42;2.33;;;;;;;;;;5097605;28;20221;-65
2022/12/25 12:41:17;;;;;;;2.30;2.10;;;;;;;;;;5098226;28;20433;-66
2022/12/25 12:43:47;;;;;;;2.58;2.38;;;;;;;;;;5097707;28;20227;-66
2022/12/25 12:46:17;;;;;;;2.50;2.30;;;;;;;;;;5098473;28;20587;-65
2022/12/25 12:48:47;;;;;;;2.17;2.08;;;;;;;;;;5097993;28;20298;-66
2022/12/25 12:51:15;;;;;;;2.50;2.30;;;;;;;;;;5098073;28;20286;-66
2022/12/25 12:53:43;;;;;;;2.20;2.10;;;;;;;;;;5096862;28;20576;-66
2022/12/25 12:56:12;;;;;;;2.40;2.20;;;;;;;;;;5096368;28;20222;-66
2022/12/25 12:58:44;;;;;;;2.10;2.00;;;;;;;;;;5097182;28;20448;-65
2022/12/25 13:01:14;;;;;;;2.30;2.10;;;;;;;;;;5098001;28;20217;-66
2022/12/25 13:03:52;;;;;;;2.05;1.90;;;;;;;;;;5096813;28;20526;-66
2022/12/25 13:06:22;;;;;;;1.98;1.88;;;;;;;;;;5097738;28;20302;-65
2022/12/25 13:08:56;;;;;;;2.15;2.05;;;;;;;;;;5097565;28;20310;-65
2022/12/25 13:11:24;;;;;;;2.00;1.80;;;;;;;;;;5098090;28;20530;-65
2022/12/25 13:13:52;;;;;;;2.00;1.88;;;;;;;;;;5096212;28;20210;-66
2022/12/25 13:16:23;;;;;;;1.80;1.70;;;;;;;;;;5096850;28;20298;-66
2022/12/25 13:18:53;;;;;;;1.92;1.83;;;;;;;;;;5096906;28;20199;-66
2022/12/25 13:21:23;;;;;;;1.80;1.70;;;;;;;;;;5097209;28;20195;-66
2022/12/25 13:23:56;;;;;;;2.10;2.00;;;;;;;;;;5096682;28;20203;-67
2022/12/25 13:26:23;;;;;;;2.00;1.90;;;;;;;;;;5096890;28;20239;-66
2022/12/25 13:28:51;;;;;;;1.70;1.60;;;;;;;;;;5096352;28;20212;-65
2022/12/25 13:31:20;;;;;;;2.03;1.92;;;;;;;;;;5095616;28;20208;-66
2022/12/25 13:33:49;;;;;;;2.10;1.90;;;;;;;;;;5096081;28;20197;-65
2022/12/25 13:36:18;;;;;;;1.90;1.80;;;;;;;;;;5096439;28;20204;-65
2022/12/25 13:38:46;;;;;;;1.90;1.80;;;;;;;;;;5095618;28;20302;-66
2022/12/25 13:44:03;;;;;;;2.00;1.52;;;;;;;;;;5096142;28;20223;-66
2022/12/25 13:46:31;;;;;;;1.80;1.70;;;;;;;;;;5096500;28;20256;-66
2022/12/25 13:48:59;;;;;;;1.85;1.75;;;;;;;;;;5096830;28;20207;-66
2022/12/25 13:51:28;;;;;;;1.75;1.65;;;;;;;;;;5095224;28;20196;-66
2022/12/25 13:54:05;;;;;;;1.80;1.70;;;;;;;;;;5094763;28;20523;-65
2022/12/25 13:56:33;;;;;;;1.80;1.70;;;;;;;;;;5096137;28;20209;-65
2022/12/25 13:59:01;;;;;;;1.77;1.63;;;;;;;;;;5095956;28;20298;-66
2022/12/25 14:01:29;;;;;;;1.65;1.55;;;;;;;;;;5095754;28;20196;-66
2022/12/25 14:03:57;;;;;;;1.80;1.70;;;;;;;;;;5095840;28;20330;-66
2022/12/25 14:06:26;;;;;;;1.65;1.55;;;;;;;;;;5094830;28;20208;-66
2022/12/25 14:08:55;;;;;;;1.52;1.42;;;;;;;;;;5095833;28;20294;-66
2022/12/25 14:11:25;;;;;;;1.70;1.60;;;;;;;;;;5095837;28;20484;-65
2022/12/25 14:13:55;;;;;;;1.60;1.50;;;;;;;;;;5095294;28;20658;-66
2022/12/25 14:16:22;;;;;;;1.33;1.23;;;;;;;;;;5094929;28;20591;-66
2022/12/25 14:18:54;;;;;;;1.67;1.58;;;;;;;;;;5095335;28;20290;-66
2022/12/25 14:21:31;;;;;;;1.33;1.23;;;;;;;;;;5095085;28;20203;-66
2022/12/25 14:24:00;;;;;;;1.50;1.40;;;;;;;;;;5096525;28;20335;-66
2022/12/25 14:26:29;;;;;;;1.75;1.60;;;;;;;;;;5095094;28;20295;-66
2022/12/25 14:29:02;;;;;;;1.60;1.50;;;;;;;;;;5095993;28;20271;-66
2022/12/25 14:31:30;;;;;;;1.42;1.33;;;;;;;;;;5095076;28;20307;-66
2022/12/25 14:33:58;;;;;;;1.50;1.40;;;;;;;;;;5095483;28;20332;-66
2022/12/25 14:36:26;;;;;;;1.40;1.30;;;;;;;;;;5095810;28;20208;-66
2022/12/25 14:38:58;;;;;;;1.50;1.40;;;;;;;;;;5093711;28;20204;-66
2022/12/25 14:41:37;;;;;;;1.30;1.20;;;;;;;;;;5094495;28;20252;-65
2022/12/25 14:44:06;;;;;;;1.65;1.55;;;;;;;;;;5094579;28;20232;-65
2022/12/25 14:46:34;;;;;;;1.35;1.25;;;;;;;;;;5095134;28;20207;-66
2022/12/25 14:49:03;;;;;;;1.35;1.10;;;;;;;;;;5095297;28;20556;-65
2022/12/25 14:51:31;;;;;;;1.50;1.40;;;;;;;;;;5095830;28;20238;-66
2022/12/25 14:53:59;;;;;;;1.45;1.35;;;;;;;;;;5095412;28;20691;-66
2022/12/25 14:56:31;;;;;;;1.27;1.17;;;;;;;;;;5094926;28;20234;-66
2022/12/25 14:59:01;;;;;;;1.35;1.25;;;;;;;;;;5095485;28;20204;-66
2022/12/25 15:01:30;;;;;;;1.17;1.08;;;;;;;;;;5094067;28;20206;-65
2022/12/25 15:04:04;;;;;;;1.30;1.20;;;;;;;;;;5094970;28;20607;-66
2022/12/25 15:06:32;;;;;;;1.50;1.40;;;;;;;;;;5094663;28;20606;-66
2022/12/25 15:09:00;;;;;;;1.30;1.20;;;;;;;;;;5094888;28;20223;-65
2022/12/25 15:11:29;;;;;;;1.35;1.25;;;;;;;;;;5095300;28;20214;-66
2022/12/25 15:13:56;;;;;;;1.25;1.17;;;;;;;;;;5094744;28;20206;-66
2022/12/25 15:16:25;;;;;;;1.30;1.20;;;;;;;;;;5093071;28;20215;-65
2022/12/25 15:18:53;;;;;;;1.58;1.48;;;;;;;;;;5093973;28;20302;-66
2022/12/25 15:21:24;;;;;;;1.45;1.35;;;;;;;;;;5095032;28;20564;-66
2022/12/25 15:23:52;;;;;;;1.10;1.10;;;;;;;;;;5093109;28;20325;-66
2022/12/25 15:26:20;;;;;;;1.30;1.20;;;;;;;;;;5093802;28;20298;-66
2022/12/25 15:28:49;;;;;;;1.40;1.30;;;;;;;;;;5094752;28;20203;-66
2022/12/25 15:31:21;;;;;;;1.20;1.10;;;;;;;;;;5093951;28;20221;-65
2022/12/25 15:33:49;;;;;;;1.27;1.17;;;;;;;;;;5093937;28;20590;-65
2022/12/25 15:36:16;;;;;;;1.30;1.20;;;;;;;;;;5094880;28;20621;-66
2022/12/25 15:38:44;;;;;;;1.30;1.20;;;;;;;;;;5093668;28;20290;-65
2022/12/25 15:42:09;;;;;;;1.30;1.20;;;;;;;;;;5093538;28;20207;-65
2022/12/25 15:44:04;;;;;;;1.30;1.20;;;;;;;;;;5094425;28;20235;-66
2022/12/25 15:46:32;;;;;;;1.40;1.30;;;;;;;;;;5094665;28;20214;-66
2022/12/25 15:49:00;;;;;;;1.60;1.40;;;;;;;;;;5095082;28;20214;-65
2022/12/25 15:51:27;;;;;;;1.27;1.17;;;;;;;;;;5095152;28;20286;-66
2022/12/25 15:53:55;;;;;;;1.40;1.30;;;;;;;;;;5095509;28;20199;-66
2022/12/25 15:56:24;;;;;;;1.10;1.10;;;;;;;;;;5095310;28;20203;-66
2022/12/25 15:58:51;;;;;;;1.60;1.13;;;;;;;;;;5094371;28;20214;-65
2022/12/25 16:01:21;;;;;;;1.20;1.10;;;;;;;;;;5094142;28;20298;-66
2022/12/25 16:03:48;;;;;;;1.02;1.00;;;;;;;;;;5093130;28;20219;-69
2022/12/25 16:06:17;;;;;;;1.02;1.00;;;;;;;;;;5093074;28;20211;-66
2022/12/25 16:08:44;;;;;;;1.00;1.00;;;;;;;;;;5093621;28;20242;-66
2022/12/25 16:11:12;;;;;;;1.10;1.00;;;;;;;;;;5093406;28;20302;-65
2022/12/25 16:13:40;;;;;;;1.23;1.13;;;;;;;;;;5094736;28;20300;-65
2022/12/25 16:16:07;;;;;;;1.30;1.20;;;;;;;;;;5093308;28;20207;-66
2022/12/25 16:18:36;;;;;;;1.33;1.23;;;;;;;;;;5094179;28;20200;-66
2022/12/25 16:21:03;;;;;;;1.40;1.30;;;;;;;;;;5094477;28;20204;-66
2022/12/25 16:23:31;;;;;;;1.10;1.10;;;;;;;;;;5093651;28;20593;-65
2022/12/25 16:25:59;;;;;;;1.20;1.10;;;;;;;;;;5093389;28;20244;-66
2022/12/25 16:28:26;;;;;;;1.08;1.05;;;;;;;;;;5094444;28;20204;-66
2022/12/25 16:30:54;;;;;;;1.27;1.08;;;;;;;;;;5097653;28;20204;-66
2022/12/25 16:33:21;;;;;;;1.10;1.00;;;;;;;;;;5097891;28;20214;-65
2022/12/25 16:35:51;;;;;;;1.15;1.05;;;;;;;;;;5098050;28;20552;-65
2022/12/25 16:38:18;;;;;;;0.93;0.93;;;;;;;;;;5097616;28;20236;-66
2022/12/25 16:40:48;;;;;;;1.00;1.00;;;;;;;;;;5097370;28;20290;-65